Share

Coulee Dam, WA

3 miles ESE of Grand Coulee Dam, in Lincoln County, WA (KWAGRAND5) Elev 1575 ft | 47.92 °N, 118.94 °W | Change Station

Current weather conditions updated 3 minutes ago

Clear
Clear
49.8 °F
Feels Like 50 °F
N
0.0
Wind Variable Wind from SE
Gusts 0.0 mph
Sunrise 5:56 AM
Sunset 7:53 PM
Moon Waning Gibbous

Tomorrow is forecast to be Warmer than today. Chance of late night showers tomorrow night.

Pressure 30.17 in
Visibility 10.0 miles
Clouds Clear
Windchill 50 °F
Dew Point 30 °F
Humidity 46%
Rainfall 0.00 in
Snow Depth Not available.
UV 0 out of 16
Pollen 10.30 out of 12
Air Quality Not available.
Flu Activity Sporadic
METAR KOMK 210453Z AUTO 18007KT 10SM CLR 09/M03 A3016 RMK AO2 SLP217 T00891033

More Conditions Fewer Conditions

Pressure 30.17 in
Visibility 10.0 miles
Clouds Clear
Windchill 50 °F
Dew Point 30 °F
Humidity 46%
Rainfall 0.00 in
Snow Depth Not available.
UV 0 out of 16
Pollen 10.30 out of 12
Air Quality Not available.
Flu Activity Sporadic
METAR KOMK 210453Z AUTO 18007KT 10SM CLR 09/M03 A3016 RMK AO2 SLP217 T00891033

More Conditions Fewer Conditions

10-Day Weather Forecast

Almanac

Astronomy

Apr. 20, 2014 Rise Set
Actual Time 5:56 AM PDT 7:53 PM PDT
Civil Twilight 5:23 AM PDT 8:26 PM PDT
Nautical Twilight 4:42 AM PDT 9:07 PM PDT
Astronomical Twilight 3:57 AM PDT 9:53 PM PDT
Moon 12:46 AM PDT (4/20) 10:13 AM PDT (4/20)
Length of Visible Light 15h 03m
Length of Day
13h 56m
Tomorrow will be 3m 16s longer.
Waning Gibbous, 62% of the Moon is Illuminated
Apr 21
Waning Gibbous
Apr 22
Last Quarter
Apr 29
New
May 6
First Quarter
May 14
Full

Yesterday's Extremes

State Highs State Lows

Community

  • Snowy Robin
    Snowy Robin
  • Sun Pillar and Geese
    Sun Pillar and Geese
  • Showers on the Way
    Showers on the Way
  • Easter Morning Fog
    Easter Morning Fog
  • Easter Dance
    Easter Dance

WunderPhotos

Upload Photos

1,703,562 photos uploaded!

WunderBlogs® & News

Nearby

Snow Depth

Station Depth Elevation
Moses Mountain 16 in 5300 ft
Salmon Meadows 0 in 4500 ft
Sentinel Butte 23 in 4920 ft
Pope Ridge 19 in 3540 ft
Upper Wheeler 16 in 4400 ft

Coastal Water Temperatures

Place Temperature
No Stations Reporting

Earthquake Activity

City Distance Mag. Time & Date
No recent earthquake activity has been reported nearby.
Minimum magnitude displayed is 2.5.

Nearby Weather Stations

Station Location Temp. Windchill Dew Point Humidity Wind Precip. Elev Updated Type
3 miles ESE of Grand Coulee Dam, in Linc, Grand Coulee, WA 49.8 °F 50 °F 30 °F 46% SE  at  0.0 mph 0.00 in / hr 1575 ft 10:32 PM PDT Rapid Fire
RAWS NESPELEM WA, Elmer City, WA 49 °F 48 °F 24 °F 37% SSE  at  4 mph 0.00 in / hr 1899 ft 9:57 PM PDT MADIS

Show More Stations Show Fewer Stations

What do you think?

We're not finished. Please let us know what you like, what you don't like, and what you are still missing.